WUK5SV EGGW-LGMK
Flight info
| Callsign | WUK5SV |
|---|---|
| Flight time | N/A |
| Altitude | 33000 |
| Route | MATCH Q295 BRAIN P44 DAGGA M604 GASBA M197 REDFA L620 TACHA DCT PODIP DCT TESGA DCT DINKU M867 XERUM DCT BAVAX DCT RADIZ DCT NIPEL DCT ABISO DCT NEMEK DCT TUPUS DCT MEDUX UM867 KOGAT DCT ERANA UL737 TSL UN130 MES N139 ERIMA R32 RIGRO UR32 LETSO |
| Aircraft | A321/M-SDE3FGHIRWY/LB1 |
Departure
| Time | N/A |
|---|---|
| Airport | London Luton Airport (EGGW) |
Arrival
| Time | 2026-05-06 22:21 |
|---|---|
| Airport | Mykonos Island National Airport (LGMK) |
| Time | Latitude | Longitude | Altitude | Speed | Heading |
|---|---|---|---|---|---|
| 2026-05-06 22:08 | 37.85413 | 26.08646 | 17064 ft | 435 kts | 161° |
| 2026-05-06 22:08 | 37.82517 | 26.09913 | 16342 ft | 434 kts | 165° |
| 2026-05-06 22:08 | 37.79556 | 26.10535 | 15653 ft | 430 kts | 180° |
| 2026-05-06 22:08 | 37.76606 | 26.10171 | 15035 ft | 424 kts | 195° |
| 2026-05-06 22:09 | 37.73825 | 26.08955 | 14260 ft | 423 kts | 208° |
| 2026-05-06 22:09 | 37.71393 | 26.06992 | 13500 ft | 419 kts | 221° |
| 2026-05-06 22:09 | 37.69354 | 26.04408 | 12870 ft | 412 kts | 234° |
| 2026-05-06 22:09 | 37.67649 | 26.01543 | 12300 ft | 405 kts | 235° |
| 2026-05-06 22:10 | 37.65954 | 25.98720 | 11645 ft | 403 kts | 235° |
| 2026-05-06 22:10 | 37.64267 | 25.95939 | 11330 ft | 391 kts | 234° |
| 2026-05-06 22:10 | 37.62644 | 25.93283 | 11172 ft | 374 kts | 234° |
| 2026-05-06 22:10 | 37.61078 | 25.90740 | 11045 ft | 359 kts | 234° |
| 2026-05-06 22:11 | 37.59574 | 25.88320 | 10924 ft | 344 kts | 234° |
| 2026-05-06 22:11 | 37.58123 | 25.85983 | 10765 ft | 332 kts | 234° |
| 2026-05-06 22:11 | 37.56736 | 25.83721 | 10604 ft | 321 kts | 235° |
| 2026-05-06 22:11 | 37.55398 | 25.81526 | 10454 ft | 310 kts | 235° |
| 2026-05-06 22:12 | 37.54099 | 25.79406 | 10245 ft | 303 kts | 234° |
| 2026-05-06 22:12 | 37.52810 | 25.77327 | 9991 ft | 298 kts | 234° |
| 2026-05-06 22:12 | 37.51552 | 25.75262 | 9810 ft | 297 kts | 236° |
| 2026-05-06 22:12 | 37.50344 | 25.73162 | 9643 ft | 296 kts | 236° |
| 2026-05-06 22:13 | 37.49372 | 25.71539 | 9500 ft | 296 kts | 235° |
| 2026-05-06 22:13 | 37.48164 | 25.69579 | 9033 ft | 300 kts | 234° |
| 2026-05-06 22:13 | 37.46873 | 25.67523 | 8647 ft | 298 kts | 233° |
| 2026-05-06 22:13 | 37.45534 | 25.65549 | 8263 ft | 296 kts | 225° |
| 2026-05-06 22:14 | 37.43902 | 25.63994 | 7730 ft | 294 kts | 217° |
| 2026-05-06 22:14 | 37.42244 | 25.62506 | 7218 ft | 291 kts | 218° |
| 2026-05-06 22:14 | 37.40634 | 25.60991 | 6727 ft | 287 kts | 219° |
| 2026-05-06 22:14 | 37.39062 | 25.59459 | 6279 ft | 283 kts | 220° |
| 2026-05-06 22:15 | 37.37522 | 25.57933 | 5875 ft | 282 kts | 219° |
| 2026-05-06 22:15 | 37.35967 | 25.56417 | 5462 ft | 283 kts | 219° |
| 2026-05-06 22:15 | 37.34409 | 25.54927 | 5183 ft | 278 kts | 218° |
| 2026-05-06 22:15 | 37.32916 | 25.53514 | 5055 ft | 268 kts | 218° |
| 2026-05-06 22:16 | 37.31456 | 25.52127 | 4920 ft | 258 kts | 223° |
| 2026-05-06 22:16 | 37.30362 | 25.50401 | 4669 ft | 251 kts | 244° |
| 2026-05-06 22:16 | 37.29749 | 25.48349 | 4191 ft | 250 kts | 253° |
| 2026-05-06 22:16 | 37.29241 | 25.46285 | 3756 ft | 246 kts | 253° |
| 2026-05-06 22:17 | 37.28754 | 25.44290 | 3476 ft | 228 kts | 258° |
| 2026-05-06 22:17 | 37.28837 | 25.42401 | 3378 ft | 216 kts | 292° |
| 2026-05-06 22:17 | 37.29739 | 25.40963 | 3136 ft | 215 kts | 327° |
| 2026-05-06 22:17 | 37.31098 | 25.40339 | 2895 ft | 202 kts | 342° |
| 2026-05-06 22:18 | 37.32412 | 25.39822 | 2571 ft | 194 kts | 339° |
| 2026-05-06 22:18 | 37.33661 | 25.39282 | 2277 ft | 187 kts | 339° |
| 2026-05-06 22:18 | 37.34855 | 25.38777 | 2051 ft | 174 kts | 339° |
| 2026-05-06 22:18 | 37.36031 | 25.38280 | 1894 ft | 184 kts | 339° |
| 2026-05-06 22:19 | 37.37224 | 25.37732 | 1769 ft | 175 kts | 338° |
| 2026-05-06 22:19 | 37.38290 | 25.37208 | 1583 ft | 155 kts | 334° |
| 2026-05-06 22:19 | 37.39247 | 25.36696 | 1263 ft | 148 kts | 337° |
| 2026-05-06 22:19 | 37.40252 | 25.36263 | 1054 ft | 153 kts | 340° |
| 2026-05-06 22:20 | 37.41249 | 25.35811 | 829 ft | 151 kts | 339° |
| 2026-05-06 22:20 | 37.42233 | 25.35389 | 580 ft | 146 kts | 341° |
| 2026-05-06 22:20 | 37.43170 | 25.34974 | 408 ft | 133 kts | 341° |
| 2026-05-06 22:20 | 37.43808 | 25.34692 | 411 ft | 68 kts | 340° |
| 2026-05-06 22:21 | 37.44073 | 25.34575 | 408 ft | 32 kts | 340° |
| 2026-05-06 22:21 | 37.44241 | 25.34491 | 406 ft | 15 kts | 320° |
| 2026-05-06 22:21 | 37.44306 | 25.34474 | 401 ft | 8 kts | 76° |
| 2026-05-06 22:21 | 37.44276 | 25.34503 | 405 ft | 6 kts | 185° |
| 2026-05-06 22:22 | 37.44224 | 25.34508 | 404 ft | 10 kts | 161° |
| 2026-05-06 22:22 | 37.44144 | 25.34543 | 407 ft | 14 kts | 161° |
| 2026-05-06 22:22 | 37.44033 | 25.34592 | 409 ft | 19 kts | 160° |
| 2026-05-06 22:22 | 37.43905 | 25.34653 | 412 ft | 22 kts | 154° |
| 2026-05-06 22:23 | 37.43765 | 25.34698 | 411 ft | 21 kts | 161° |
| 2026-05-06 22:23 | 37.43649 | 25.34696 | 409 ft | 10 kts | 211° |
| 2026-05-06 22:23 | 37.43594 | 25.34673 | 408 ft | 8 kts | 173° |
| 2026-05-06 22:23 | 37.43556 | 25.34689 | 408 ft | 9 kts | 160° |
| 2026-05-06 22:24 | 37.43474 | 25.34725 | 406 ft | 8 kts | 161° |
| 2026-05-06 22:24 | 37.43438 | 25.34719 | 407 ft | 5 kts | 244° |
| 2026-05-06 22:24 | 37.43431 | 25.34692 | 407 ft | 1 kts | 251° |
| 2026-05-06 22:24 | 37.43428 | 25.34683 | 407 ft | 0 kts | 251° |